Impacts METAR Board
IDs:

KTPA - Tampa Intl Arpt, FL, US

Updated at: 1300 UTC 27 Feb 2021
Potential Impact None Slight Moderate High
Time 27/01Z 27/02Z 27/03Z 27/04Z 27/05Z 27/06Z 27/07Z 27/08Z 27/09Z 27/10Z 27/11Z 27/12Z 27/13Z
Temp73 72 71 71 73 73 73 72 71 71 70 70 72
Dewpt61 60 60 58 59 60 64 65 66 66 66 66 67
Altim30.13 30.14 30.16 30.15 30.15 30.15 30.15 30.14 30.14 30.15 30.16 30.17 30.19
VIS10 10 10 10 10 10 10 10 10 10 10 10 10
CIG-- -- -- 60 43 60 60 -- -- -- -- -- --
CoverFEWFEWFEWBKNOVCOVCBKNSCTCLRCLRCLRCLRCLR
FltCatVFRVFRVFRVFRVFRVFRVFRVFRVFRVFRVFRVFRVFR
WX--------------------------
WDir35005036000100130140140140130130
WSpd4 0 5 3 4 0 3 4 5 6 4 5 5
WGst-- -- -- -- -- -- -- -- -- -- -- -- --
Raw hourly METARs
KTPA 270053Z 35004KT 10SM FEW040 23/16 A3013 RMK AO2 SLP203 T02280161
KTPA 270153Z 00000KT 10SM FEW035 22/16 A3014 RMK AO2 SLP205 T02220156
KTPA 270253Z 05005KT 10SM FEW035 FEW250 22/16 A3016 RMK AO2 SLP211 T02170156 53010
KTPA 270353Z 36003KT 10SM BKN060 22/14 A3015 RMK AO2 SLP208 T02170144
KTPA 270453Z VRB04KT 10SM BKN043 OVC060 23/15 A3015 RMK AO2 SLP209 T02280150 402830172
KTPA 270601Z 00000KT 10SM SCT028 OVC060 23/16 A3015 RMK AO2 T02280156
KTPA 270653Z 10003KT 10SM BKN060 23/18 A3015 RMK AO2 SLP209 T02280178
KTPA 270753Z 13004KT 10SM SCT065 22/18 A3014 RMK AO2 SLP206 T02220183
KTPA 270853Z 14005KT 10SM CLR 22/19 A3014 RMK AO2 SLP204 T02170189 58003
KTPA 270953Z 14006KT 10SM CLR 22/19 A3015 RMK AO2 SLP208 T02170189
KTPA 271053Z 14004KT 10SM CLR 21/19 A3016 RMK AO2 SLP211 T02110189
KTPA 271153Z 13005KT 10SM CLR 21/19 A3017 RMK AO2 SLP215 T02110189 10228 20211 52011
KTPA 271253Z 13005KT 10SM CLR 22/19 A3019 RMK AO2 SLP222 T02220194



Page loaded:  13:22 UTC  |   05:22 AM Pacific  |   06:22 AM Mountain  |   07:22 AM Central  |   08:22 AM Eastern

 

ADVISORIES

FORECASTS

FORECASTS

OBSERVATIONS

USER TOOLS

ABOUT US